sensor_id;sensor_type;location;lat;lon;timestamp;P1;durP1;ratioP1;P2;durP2;ratioP2
17852;SDS011;9052;53.494;14.376;2023-07-31T00:01:14;3.47;;;2.37;;
17852;SDS011;9052;53.494;14.376;2023-07-31T00:03:41;8.53;;;2.60;;
17852;SDS011;9052;53.494;14.376;2023-07-31T00:06:08;3.07;;;2.77;;
17852;SDS011;9052;53.494;14.376;2023-07-31T00:08:35;6.03;;;3.10;;
17852;SDS011;9052;53.494;14.376;2023-07-31T00:11:02;4.73;;;2.53;;
17852;SDS011;9052;53.494;14.376;2023-07-31T00:13:29;5.17;;;2.90;;
17852;SDS011;9052;53.494;14.376;2023-07-31T00:15:58;8.90;;;2.97;;
17852;SDS011;9052;53.494;14.376;2023-07-31T00:18:25;6.27;;;3.13;;
17852;SDS011;9052;53.494;14.376;2023-07-31T00:20:52;2.57;;;2.37;;
17852;SDS011;9052;53.494;14.376;2023-07-31T00:23:19;10.97;;;2.60;;
17852;SDS011;9052;53.494;14.376;2023-07-31T00:25:46;8.50;;;2.17;;
17852;SDS011;9052;53.494;14.376;2023-07-31T00:28:13;4.80;;;2.50;;
17852;SDS011;9052;53.494;14.376;2023-07-31T00:30:40;3.10;;;2.30;;
17852;SDS011;9052;53.494;14.376;2023-07-31T00:33:08;4.10;;;2.10;;
17852;SDS011;9052;53.494;14.376;2023-07-31T00:35:35;5.80;;;2.50;;
17852;SDS011;9052;53.494;14.376;2023-07-31T00:38:02;3.67;;;2.40;;
17852;SDS011;9052;53.494;14.376;2023-07-31T00:40:30;4.33;;;3.17;;
17852;SDS011;9052;53.494;14.376;2023-07-31T00:43:01;4.77;;;2.07;;
17852;SDS011;9052;53.494;14.376;2023-07-31T00:45:28;5.23;;;2.80;;
17852;SDS011;9052;53.494;14.376;2023-07-31T00:47:56;6.53;;;2.63;;
17852;SDS011;9052;53.494;14.376;2023-07-31T00:50:25;4.80;;;2.60;;
17852;SDS011;9052;53.494;14.376;2023-07-31T00:52:52;6.20;;;2.17;;
17852;SDS011;9052;53.494;14.376;2023-07-31T00:55:19;11.00;;;2.87;;
17852;SDS011;9052;53.494;14.376;2023-07-31T00:57:47;4.70;;;2.70;;
17852;SDS011;9052;53.494;14.376;2023-07-31T01:00:17;6.00;;;2.67;;
17852;SDS011;9052;53.494;14.376;2023-07-31T01:02:44;4.87;;;3.10;;
17852;SDS011;9052;53.494;14.376;2023-07-31T01:05:11;5.73;;;2.63;;
17852;SDS011;9052;53.494;14.376;2023-07-31T01:07:42;6.90;;;3.13;;
17852;SDS011;9052;53.494;14.376;2023-07-31T01:10:14;15.63;;;2.73;;
17852;SDS011;9052;53.494;14.376;2023-07-31T01:12:43;3.37;;;2.73;;
17852;SDS011;9052;53.494;14.376;2023-07-31T01:15:11;7.23;;;2.70;;
17852;SDS011;9052;53.494;14.376;2023-07-31T01:17:40;2.57;;;2.33;;
17852;SDS011;9052;53.494;14.376;2023-07-31T01:20:10;5.73;;;2.50;;
17852;SDS011;9052;53.494;14.376;2023-07-31T01:26:07;4.63;;;2.30;;
17852;SDS011;9052;53.494;14.376;2023-07-31T01:28:40;4.40;;;3.10;;
17852;SDS011;9052;53.494;14.376;2023-07-31T01:31:14;3.23;;;2.30;;
17852;SDS011;9052;53.494;14.376;2023-07-31T01:33:46;14.17;;;2.60;;
17852;SDS011;9052;53.494;14.376;2023-07-31T01:36:13;2.80;;;2.03;;
17852;SDS011;9052;53.494;14.376;2023-07-31T01:38:40;3.83;;;2.20;;
17852;SDS011;9052;53.494;14.376;2023-07-31T01:41:08;9.00;;;2.80;;
17852;SDS011;9052;53.494;14.376;2023-07-31T01:43:35;8.27;;;2.90;;
17852;SDS011;9052;53.494;14.376;2023-07-31T01:46:03;2.30;;;2.03;;
17852;SDS011;9052;53.494;14.376;2023-07-31T01:48:30;9.50;;;3.03;;
17852;SDS011;9052;53.494;14.376;2023-07-31T01:51:02;7.93;;;2.67;;
17852;SDS011;9052;53.494;14.376;2023-07-31T01:53:31;5.20;;;2.30;;
17852;SDS011;9052;53.494;14.376;2023-07-31T01:55:58;4.97;;;2.20;;
17852;SDS011;9052;53.494;14.376;2023-07-31T01:58:27;9.03;;;2.30;;
17852;SDS011;9052;53.494;14.376;2023-07-31T02:00:54;5.00;;;2.43;;
17852;SDS011;9052;53.494;14.376;2023-07-31T02:03:21;3.20;;;2.83;;
17852;SDS011;9052;53.494;14.376;2023-07-31T02:05:49;5.47;;;2.80;;
17852;SDS011;9052;53.494;14.376;2023-07-31T02:08:16;4.13;;;2.47;;
17852;SDS011;9052;53.494;14.376;2023-07-31T02:10:43;14.90;;;2.60;;
17852;SDS011;9052;53.494;14.376;2023-07-31T02:13:10;6.10;;;2.70;;
17852;SDS011;9052;53.494;14.376;2023-07-31T02:15:39;3.37;;;2.50;;
17852;SDS011;9052;53.494;14.376;2023-07-31T02:18:06;10.90;;;3.30;;
17852;SDS011;9052;53.494;14.376;2023-07-31T02:20:33;14.80;;;3.33;;
17852;SDS011;9052;53.494;14.376;2023-07-31T02:23:01;6.23;;;2.77;;
17852;SDS011;9052;53.494;14.376;2023-07-31T02:25:29;3.90;;;2.73;;
17852;SDS011;9052;53.494;14.376;2023-07-31T02:27:56;4.73;;;2.47;;
17852;SDS011;9052;53.494;14.376;2023-07-31T02:30:23;3.43;;;2.87;;
17852;SDS011;9052;53.494;14.376;2023-07-31T02:32:51;2.37;;;1.60;;
17852;SDS011;9052;53.494;14.376;2023-07-31T02:35:18;7.70;;;2.80;;
17852;SDS011;9052;53.494;14.376;2023-07-31T02:37:45;4.13;;;2.77;;
17852;SDS011;9052;53.494;14.376;2023-07-31T02:40:12;5.07;;;2.63;;
17852;SDS011;9052;53.494;14.376;2023-07-31T02:42:39;8.70;;;3.10;;
17852;SDS011;9052;53.494;14.376;2023-07-31T02:45:07;4.67;;;1.90;;
17852;SDS011;9052;53.494;14.376;2023-07-31T02:47:35;8.77;;;2.80;;
17852;SDS011;9052;53.494;14.376;2023-07-31T02:50:03;6.00;;;3.30;;
17852;SDS011;9052;53.494;14.376;2023-07-31T02:52:30;8.33;;;2.50;;
17852;SDS011;9052;53.494;14.376;2023-07-31T02:54:57;4.43;;;3.00;;
17852;SDS011;9052;53.494;14.376;2023-07-31T02:57:24;3.87;;;2.50;;
17852;SDS011;9052;53.494;14.376;2023-07-31T02:59:51;3.13;;;2.83;;
17852;SDS011;9052;53.494;14.376;2023-07-31T03:02:18;5.40;;;2.80;;
17852;SDS011;9052;53.494;14.376;2023-07-31T03:04:45;2.80;;;2.60;;
17852;SDS011;9052;53.494;14.376;2023-07-31T03:07:13;8.73;;;3.13;;
17852;SDS011;9052;53.494;14.376;2023-07-31T03:09:40;3.23;;;2.97;;
17852;SDS011;9052;53.494;14.376;2023-07-31T03:12:08;4.80;;;2.27;;
17852;SDS011;9052;53.494;14.376;2023-07-31T03:14:35;3.13;;;2.70;;
17852;SDS011;9052;53.494;14.376;2023-07-31T03:17:02;9.53;;;2.90;;
17852;SDS011;9052;53.494;14.376;2023-07-31T03:19:30;5.87;;;3.07;;
17852;SDS011;9052;53.494;14.376;2023-07-31T03:21:57;7.33;;;3.03;;
17852;SDS011;9052;53.494;14.376;2023-07-31T03:24:26;3.97;;;2.33;;
17852;SDS011;9052;53.494;14.376;2023-07-31T03:26:53;3.07;;;2.60;;
17852;SDS011;9052;53.494;14.376;2023-07-31T03:29:19;7.90;;;2.30;;
17852;SDS011;9052;53.494;14.376;2023-07-31T03:31:46;7.13;;;2.70;;
17852;SDS011;9052;53.494;14.376;2023-07-31T03:34:13;8.00;;;2.80;;
17852;SDS011;9052;53.494;14.376;2023-07-31T03:36:40;7.33;;;2.90;;
17852;SDS011;9052;53.494;14.376;2023-07-31T03:39:07;6.63;;;2.60;;
17852;SDS011;9052;53.494;14.376;2023-07-31T03:41:35;7.17;;;2.40;;
17852;SDS011;9052;53.494;14.376;2023-07-31T03:44:02;4.57;;;2.50;;
17852;SDS011;9052;53.494;14.376;2023-07-31T03:46:29;2.47;;;2.27;;
17852;SDS011;9052;53.494;14.376;2023-07-31T03:48:56;4.47;;;2.80;;
17852;SDS011;9052;53.494;14.376;2023-07-31T03:51:23;4.17;;;2.10;;
17852;SDS011;9052;53.494;14.376;2023-07-31T03:53:50;5.40;;;2.20;;
17852;SDS011;9052;53.494;14.376;2023-07-31T03:56:17;8.03;;;2.33;;
17852;SDS011;9052;53.494;14.376;2023-07-31T03:58:45;5.17;;;1.70;;
17852;SDS011;9052;53.494;14.376;2023-07-31T04:01:13;2.20;;;1.73;;
17852;SDS011;9052;53.494;14.376;2023-07-31T04:03:39;3.57;;;1.80;;
17852;SDS011;9052;53.494;14.376;2023-07-31T04:06:07;5.17;;;1.97;;
17852;SDS011;9052;53.494;14.376;2023-07-31T04:08:33;5.83;;;2.10;;
17852;SDS011;9052;53.494;14.376;2023-07-31T04:11:00;17.67;;;2.30;;
17852;SDS011;9052;53.494;14.376;2023-07-31T04:13:29;6.17;;;2.50;;
17852;SDS011;9052;53.494;14.376;2023-07-31T04:15:57;3.73;;;1.47;;
17852;SDS011;9052;53.494;14.376;2023-07-31T04:18:25;6.90;;;2.10;;
17852;SDS011;9052;53.494;14.376;2023-07-31T04:20:52;4.80;;;2.47;;
17852;SDS011;9052;53.494;14.376;2023-07-31T04:23:19;2.83;;;2.43;;
17852;SDS011;9052;53.494;14.376;2023-07-31T04:25:46;3.23;;;1.93;;
17852;SDS011;9052;53.494;14.376;2023-07-31T04:28:13;3.10;;;1.83;;
17852;SDS011;9052;53.494;14.376;2023-07-31T04:30:40;4.77;;;2.43;;
17852;SDS011;9052;53.494;14.376;2023-07-31T04:33:09;4.80;;;2.40;;
17852;SDS011;9052;53.494;14.376;2023-07-31T04:35:36;2.97;;;2.03;;
17852;SDS011;9052;53.494;14.376;2023-07-31T04:38:03;12.33;;;2.70;;
17852;SDS011;9052;53.494;14.376;2023-07-31T04:40:29;4.10;;;2.27;;
17852;SDS011;9052;53.494;14.376;2023-07-31T04:42:56;14.30;;;2.70;;
17852;SDS011;9052;53.494;14.376;2023-07-31T04:45:23;4.20;;;2.50;;
17852;SDS011;9052;53.494;14.376;2023-07-31T04:47:50;4.90;;;2.83;;
17852;SDS011;9052;53.494;14.376;2023-07-31T04:50:19;6.17;;;2.93;;
17852;SDS011;9052;53.494;14.376;2023-07-31T04:52:46;5.00;;;2.60;;
17852;SDS011;9052;53.494;14.376;2023-07-31T04:55:13;4.13;;;2.90;;
17852;SDS011;9052;53.494;14.376;2023-07-31T04:57:40;7.93;;;2.73;;
17852;SDS011;9052;53.494;14.376;2023-07-31T05:00:07;7.77;;;3.73;;
17852;SDS011;9052;53.494;14.376;2023-07-31T05:02:35;10.17;;;3.03;;
17852;SDS011;9052;53.494;14.376;2023-07-31T05:05:01;3.37;;;3.07;;
17852;SDS011;9052;53.494;14.376;2023-07-31T05:07:30;9.53;;;3.20;;
17852;SDS011;9052;53.494;14.376;2023-07-31T05:09:57;3.43;;;2.83;;
17852;SDS011;9052;53.494;14.376;2023-07-31T05:12:24;9.00;;;3.67;;
17852;SDS011;9052;53.494;14.376;2023-07-31T05:14:51;8.67;;;3.37;;
17852;SDS011;9052;53.494;14.376;2023-07-31T05:17:18;3.43;;;3.23;;
17852;SDS011;9052;53.494;14.376;2023-07-31T05:19:45;8.30;;;3.20;;
17852;SDS011;9052;53.494;14.376;2023-07-31T05:22:12;7.67;;;2.97;;
17852;SDS011;9052;53.494;14.376;2023-07-31T05:24:41;2.97;;;2.77;;
17852;SDS011;9052;53.494;14.376;2023-07-31T05:27:08;4.37;;;3.30;;
17852;SDS011;9052;53.494;14.376;2023-07-31T05:29:35;4.47;;;3.00;;
17852;SDS011;9052;53.494;14.376;2023-07-31T05:32:03;9.90;;;3.77;;
17852;SDS011;9052;53.494;14.376;2023-07-31T05:34:30;5.30;;;3.27;;
17852;SDS011;9052;53.494;14.376;2023-07-31T05:36:57;4.60;;;2.87;;
17852;SDS011;9052;53.494;14.376;2023-07-31T05:39:24;6.67;;;3.37;;
17852;SDS011;9052;53.494;14.376;2023-07-31T05:41:53;11.57;;;3.07;;
17852;SDS011;9052;53.494;14.376;2023-07-31T05:44:20;5.30;;;3.10;;
17852;SDS011;9052;53.494;14.376;2023-07-31T05:46:47;9.77;;;3.47;;
17852;SDS011;9052;53.494;14.376;2023-07-31T05:49:14;5.33;;;2.90;;
17852;SDS011;9052;53.494;14.376;2023-07-31T05:51:41;8.13;;;3.57;;
17852;SDS011;9052;53.494;14.376;2023-07-31T05:54:08;4.33;;;2.90;;
17852;SDS011;9052;53.494;14.376;2023-07-31T05:56:35;13.17;;;4.20;;
17852;SDS011;9052;53.494;14.376;2023-07-31T05:59:03;12.40;;;4.03;;
17852;SDS011;9052;53.494;14.376;2023-07-31T06:01:30;5.10;;;2.77;;
17852;SDS011;9052;53.494;14.376;2023-07-31T06:03:57;4.13;;;2.87;;
17852;SDS011;9052;53.494;14.376;2023-07-31T06:06:24;7.07;;;2.70;;
17852;SDS011;9052;53.494;14.376;2023-07-31T06:08:51;7.10;;;3.27;;
17852;SDS011;9052;53.494;14.376;2023-07-31T06:11:20;11.43;;;3.10;;
17852;SDS011;9052;53.494;14.376;2023-07-31T06:13:47;5.33;;;2.57;;
17852;SDS011;9052;53.494;14.376;2023-07-31T06:16:16;6.50;;;2.70;;
17852;SDS011;9052;53.494;14.376;2023-07-31T06:18:43;5.17;;;2.07;;
17852;SDS011;9052;53.494;14.376;2023-07-31T06:21:10;7.07;;;2.70;;
17852;SDS011;9052;53.494;14.376;2023-07-31T06:23:37;4.93;;;2.33;;
17852;SDS011;9052;53.494;14.376;2023-07-31T06:26:04;3.20;;;2.70;;
17852;SDS011;9052;53.494;14.376;2023-07-31T06:28:31;7.40;;;2.30;;
17852;SDS011;9052;53.494;14.376;2023-07-31T06:30:58;2.50;;;2.13;;
17852;SDS011;9052;53.494;14.376;2023-07-31T06:33:27;7.00;;;2.63;;
17852;SDS011;9052;53.494;14.376;2023-07-31T06:35:54;9.10;;;2.97;;
17852;SDS011;9052;53.494;14.376;2023-07-31T06:38:22;6.90;;;3.10;;
17852;SDS011;9052;53.494;14.376;2023-07-31T06:40:50;8.00;;;2.33;;
17852;SDS011;9052;53.494;14.376;2023-07-31T06:43:18;13.20;;;3.17;;
17852;SDS011;9052;53.494;14.376;2023-07-31T06:45:45;5.17;;;2.70;;
17852;SDS011;9052;53.494;14.376;2023-07-31T06:48:15;5.53;;;2.83;;
17852;SDS011;9052;53.494;14.376;2023-07-31T06:50:43;5.63;;;2.87;;
17852;SDS011;9052;53.494;14.376;2023-07-31T06:53:14;8.10;;;2.70;;
17852;SDS011;9052;53.494;14.376;2023-07-31T06:55:41;4.70;;;2.43;;
17852;SDS011;9052;53.494;14.376;2023-07-31T06:58:08;4.23;;;1.93;;
17852;SDS011;9052;53.494;14.376;2023-07-31T07:00:35;9.40;;;2.50;;
17852;SDS011;9052;53.494;14.376;2023-07-31T07:03:02;8.67;;;2.20;;
17852;SDS011;9052;53.494;14.376;2023-07-31T07:05:29;8.77;;;2.90;;
17852;SDS011;9052;53.494;14.376;2023-07-31T07:07:57;7.43;;;2.33;;
17852;SDS011;9052;53.494;14.376;2023-07-31T07:10:24;1.77;;;1.67;;
17852;SDS011;9052;53.494;14.376;2023-07-31T07:12:52;3.60;;;2.00;;
17852;SDS011;9052;53.494;14.376;2023-07-31T07:15:20;7.43;;;2.33;;
17852;SDS011;9052;53.494;14.376;2023-07-31T07:17:47;4.73;;;2.00;;
17852;SDS011;9052;53.494;14.376;2023-07-31T07:20:14;3.27;;;1.90;;
17852;SDS011;9052;53.494;14.376;2023-07-31T07:22:41;7.07;;;1.97;;
17852;SDS011;9052;53.494;14.376;2023-07-31T07:25:10;12.63;;;2.43;;
17852;SDS011;9052;53.494;14.376;2023-07-31T07:27:37;9.67;;;2.33;;
17852;SDS011;9052;53.494;14.376;2023-07-31T07:30:04;7.63;;;2.80;;
17852;SDS011;9052;53.494;14.376;2023-07-31T07:32:32;5.10;;;2.20;;
17852;SDS011;9052;53.494;14.376;2023-07-31T07:34:59;4.07;;;1.83;;
17852;SDS011;9052;53.494;14.376;2023-07-31T07:37:26;2.17;;;1.97;;
17852;SDS011;9052;53.494;14.376;2023-07-31T07:39:53;2.90;;;2.00;;
17852;SDS011;9052;53.494;14.376;2023-07-31T07:42:21;6.97;;;2.03;;
17852;SDS011;9052;53.494;14.376;2023-07-31T07:44:49;3.20;;;1.70;;
17852;SDS011;9052;53.494;14.376;2023-07-31T07:47:15;3.60;;;2.50;;
17852;SDS011;9052;53.494;14.376;2023-07-31T07:49:42;4.07;;;2.17;;
17852;SDS011;9052;53.494;14.376;2023-07-31T07:52:10;3.83;;;1.60;;
17852;SDS011;9052;53.494;14.376;2023-07-31T07:54:37;1.70;;;1.60;;
17852;SDS011;9052;53.494;14.376;2023-07-31T07:57:04;1.57;;;1.40;;
17852;SDS011;9052;53.494;14.376;2023-07-31T07:59:32;4.30;;;1.83;;
17852;SDS011;9052;53.494;14.376;2023-07-31T08:01:59;2.90;;;1.60;;
17852;SDS011;9052;53.494;14.376;2023-07-31T08:04:26;1.63;;;1.53;;
17852;SDS011;9052;53.494;14.376;2023-07-31T08:06:54;4.50;;;2.10;;
17852;SDS011;9052;53.494;14.376;2023-07-31T08:09:21;6.30;;;1.80;;
17852;SDS011;9052;53.494;14.376;2023-07-31T08:11:48;2.47;;;1.73;;
17852;SDS011;9052;53.494;14.376;2023-07-31T08:14:15;1.83;;;1.53;;
17852;SDS011;9052;53.494;14.376;2023-07-31T08:16:44;2.30;;;1.30;;
17852;SDS011;9052;53.494;14.376;2023-07-31T08:19:12;4.50;;;1.60;;
17852;SDS011;9052;53.494;14.376;2023-07-31T08:21:39;3.53;;;1.60;;
17852;SDS011;9052;53.494;14.376;2023-07-31T08:24:06;4.40;;;1.57;;
17852;SDS011;9052;53.494;14.376;2023-07-31T08:26:33;3.77;;;1.40;;
17852;SDS011;9052;53.494;14.376;2023-07-31T08:29:00;2.93;;;2.10;;
17852;SDS011;9052;53.494;14.376;2023-07-31T08:31:27;6.20;;;1.50;;
17852;SDS011;9052;53.494;14.376;2023-07-31T08:33:57;1.40;;;1.20;;
17852;SDS011;9052;53.494;14.376;2023-07-31T08:36:23;3.40;;;1.67;;
17852;SDS011;9052;53.494;14.376;2023-07-31T08:38:50;1.97;;;1.77;;
17852;SDS011;9052;53.494;14.376;2023-07-31T08:41:18;5.53;;;2.13;;
17852;SDS011;9052;53.494;14.376;2023-07-31T08:43:46;3.03;;;1.70;;
17852;SDS011;9052;53.494;14.376;2023-07-31T08:46:13;3.40;;;1.90;;
17852;SDS011;9052;53.494;14.376;2023-07-31T08:48:41;5.30;;;1.93;;
17852;SDS011;9052;53.494;14.376;2023-07-31T08:51:10;2.63;;;1.57;;
17852;SDS011;9052;53.494;14.376;2023-07-31T08:53:37;1.87;;;1.53;;
17852;SDS011;9052;53.494;14.376;2023-07-31T08:56:06;2.40;;;1.70;;
17852;SDS011;9052;53.494;14.376;2023-07-31T08:58:33;6.93;;;2.27;;
17852;SDS011;9052;53.494;14.376;2023-07-31T09:01:01;1.57;;;1.47;;
17852;SDS011;9052;53.494;14.376;2023-07-31T09:03:33;2.50;;;1.50;;
17852;SDS011;9052;53.494;14.376;2023-07-31T09:06:00;2.23;;;1.40;;
17852;SDS011;9052;53.494;14.376;2023-07-31T09:08:31;15.70;;;1.80;;
17852;SDS011;9052;53.494;14.376;2023-07-31T09:10:59;2.60;;;1.60;;
17852;SDS011;9052;53.494;14.376;2023-07-31T09:13:29;1.67;;;1.23;;
17852;SDS011;9052;53.494;14.376;2023-07-31T09:15:56;2.93;;;1.57;;
17852;SDS011;9052;53.494;14.376;2023-07-31T09:18:23;3.43;;;1.53;;
17852;SDS011;9052;53.494;14.376;2023-07-31T09:21:00;2.67;;;1.40;;
17852;SDS011;9052;53.494;14.376;2023-07-31T09:23:29;2.43;;;1.73;;
17852;SDS011;9052;53.494;14.376;2023-07-31T09:26:08;5.57;;;1.73;;
17852;SDS011;9052;53.494;14.376;2023-07-31T09:28:35;3.10;;;1.73;;
17852;SDS011;9052;53.494;14.376;2023-07-31T09:31:03;4.63;;;1.53;;
17852;SDS011;9052;53.494;14.376;2023-07-31T09:33:30;2.30;;;2.03;;
17852;SDS011;9052;53.494;14.376;2023-07-31T09:35:58;3.77;;;1.47;;
17852;SDS011;9052;53.494;14.376;2023-07-31T09:38:26;3.23;;;1.80;;
17852;SDS011;9052;53.494;14.376;2023-07-31T09:40:55;4.00;;;1.10;;
17852;SDS011;9052;53.494;14.376;2023-07-31T09:43:22;2.97;;;1.33;;
17852;SDS011;9052;53.494;14.376;2023-07-31T09:45:54;10.70;;;2.23;;
17852;SDS011;9052;53.494;14.376;2023-07-31T09:48:23;4.83;;;1.50;;
17852;SDS011;9052;53.494;14.376;2023-07-31T09:50:52;4.57;;;2.00;;
17852;SDS011;9052;53.494;14.376;2023-07-31T09:53:20;3.83;;;1.40;;
17852;SDS011;9052;53.494;14.376;2023-07-31T09:55:56;3.73;;;1.90;;
17852;SDS011;9052;53.494;14.376;2023-07-31T09:58:24;8.17;;;2.80;;
17852;SDS011;9052;53.494;14.376;2023-07-31T10:00:52;4.53;;;1.37;;
17852;SDS011;9052;53.494;14.376;2023-07-31T10:03:19;3.27;;;2.00;;
17852;SDS011;9052;53.494;14.376;2023-07-31T10:05:48;3.70;;;2.00;;
17852;SDS011;9052;53.494;14.376;2023-07-31T10:08:18;1.63;;;1.30;;
17852;SDS011;9052;53.494;14.376;2023-07-31T10:10:46;3.63;;;1.73;;
17852;SDS011;9052;53.494;14.376;2023-07-31T10:13:15;3.53;;;1.70;;
17852;SDS011;9052;53.494;14.376;2023-07-31T10:15:43;13.60;;;2.10;;
17852;SDS011;9052;53.494;14.376;2023-07-31T10:18:10;3.87;;;1.70;;
17852;SDS011;9052;53.494;14.376;2023-07-31T10:20:37;2.03;;;1.90;;
17852;SDS011;9052;53.494;14.376;2023-07-31T10:23:04;4.63;;;1.97;;
17852;SDS011;9052;53.494;14.376;2023-07-31T10:25:31;4.40;;;1.37;;
17852;SDS011;9052;53.494;14.376;2023-07-31T10:27:58;4.13;;;1.43;;
17852;SDS011;9052;53.494;14.376;2023-07-31T10:30:28;1.47;;;1.37;;
17852;SDS011;9052;53.494;14.376;2023-07-31T10:32:56;1.60;;;1.50;;
17852;SDS011;9052;53.494;14.376;2023-07-31T10:35:23;1.73;;;1.10;;
17852;SDS011;9052;53.494;14.376;2023-07-31T10:37:50;6.23;;;1.37;;
17852;SDS011;9052;53.494;14.376;2023-07-31T10:40:19;1.53;;;1.40;;
17852;SDS011;9052;53.494;14.376;2023-07-31T10:42:51;1.37;;;1.27;;
17852;SDS011;9052;53.494;14.376;2023-07-31T10:45:24;1.63;;;1.27;;
17852;SDS011;9052;53.494;14.376;2023-07-31T10:47:59;2.90;;;1.20;;
17852;SDS011;9052;53.494;14.376;2023-07-31T10:50:27;2.50;;;1.43;;
17852;SDS011;9052;53.494;14.376;2023-07-31T10:52:55;2.30;;;1.57;;
17852;SDS011;9052;53.494;14.376;2023-07-31T10:55:27;1.83;;;1.40;;
17852;SDS011;9052;53.494;14.376;2023-07-31T10:57:56;15.03;;;1.47;;
17852;SDS011;9052;53.494;14.376;2023-07-31T11:00:25;2.17;;;1.37;;
17852;SDS011;9052;53.494;14.376;2023-07-31T11:03:01;1.50;;;1.30;;
17852;SDS011;9052;53.494;14.376;2023-07-31T11:08:28;2.17;;;1.23;;
17852;SDS011;9052;53.494;14.376;2023-07-31T11:11:05;1.87;;;1.30;;
17852;SDS011;9052;53.494;14.376;2023-07-31T11:13:33;1.33;;;1.13;;
17852;SDS011;9052;53.494;14.376;2023-07-31T11:16:09;1.07;;;1.07;;
17852;SDS011;9052;53.494;14.376;2023-07-31T11:18:38;1.57;;;1.43;;
17852;SDS011;9052;53.494;14.376;2023-07-31T11:21:05;3.20;;;1.80;;
17852;SDS011;9052;53.494;14.376;2023-07-31T11:23:32;3.70;;;1.63;;
17852;SDS011;9052;53.494;14.376;2023-07-31T11:25:59;1.63;;;1.10;;
17852;SDS011;9052;53.494;14.376;2023-07-31T11:28:30;2.87;;;1.20;;
17852;SDS011;9052;53.494;14.376;2023-07-31T11:30:58;1.43;;;1.33;;
17852;SDS011;9052;53.494;14.376;2023-07-31T11:33:26;1.67;;;1.40;;
17852;SDS011;9052;53.494;14.376;2023-07-31T11:35:53;1.40;;;1.30;;
17852;SDS011;9052;53.494;14.376;2023-07-31T11:38:23;2.07;;;1.40;;
17852;SDS011;9052;53.494;14.376;2023-07-31T11:40:51;1.30;;;1.20;;
17852;SDS011;9052;53.494;14.376;2023-07-31T11:43:18;1.63;;;1.20;;
17852;SDS011;9052;53.494;14.376;2023-07-31T11:45:46;1.23;;;1.00;;
17852;SDS011;9052;53.494;14.376;2023-07-31T11:48:20;1.93;;;1.03;;
17852;SDS011;9052;53.494;14.376;2023-07-31T11:50:50;1.40;;;1.30;;
17852;SDS011;9052;53.494;14.376;2023-07-31T11:53:19;4.43;;;1.27;;
17852;SDS011;9052;53.494;14.376;2023-07-31T11:55:48;1.43;;;1.30;;
17852;SDS011;9052;53.494;14.376;2023-07-31T11:58:15;8.03;;;1.23;;
17852;SDS011;9052;53.494;14.376;2023-07-31T12:00:42;1.30;;;1.20;;
17852;SDS011;9052;53.494;14.376;2023-07-31T12:03:09;1.47;;;1.03;;
17852;SDS011;9052;53.494;14.376;2023-07-31T12:05:37;1.20;;;1.10;;
17852;SDS011;9052;53.494;14.376;2023-07-31T12:08:09;3.60;;;1.03;;
17852;SDS011;9052;53.494;14.376;2023-07-31T12:10:38;1.17;;;1.07;;
17852;SDS011;9052;53.494;14.376;2023-07-31T12:13:07;1.43;;;1.33;;
17852;SDS011;9052;53.494;14.376;2023-07-31T12:15:39;1.90;;;1.27;;
17852;SDS011;9052;53.494;14.376;2023-07-31T12:18:08;4.60;;;1.43;;
17852;SDS011;9052;53.494;14.376;2023-07-31T12:20:39;1.60;;;1.47;;
17852;SDS011;9052;53.494;14.376;2023-07-31T12:23:07;1.30;;;1.20;;
17852;SDS011;9052;53.494;14.376;2023-07-31T12:25:35;1.30;;;1.20;;
17852;SDS011;9052;53.494;14.376;2023-07-31T12:28:06;1.97;;;1.87;;
17852;SDS011;9052;53.494;14.376;2023-07-31T12:30:37;2.60;;;1.80;;
17852;SDS011;9052;53.494;14.376;2023-07-31T12:33:05;1.37;;;1.27;;
17852;SDS011;9052;53.494;14.376;2023-07-31T12:35:36;1.73;;;1.63;;
17852;SDS011;9052;53.494;14.376;2023-07-31T12:38:04;1.70;;;1.60;;
17852;SDS011;9052;53.494;14.376;2023-07-31T12:40:31;1.50;;;1.10;;
17852;SDS011;9052;53.494;14.376;2023-07-31T12:43:00;2.60;;;1.40;;
17852;SDS011;9052;53.494;14.376;2023-07-31T12:45:28;1.97;;;1.03;;
17852;SDS011;9052;53.494;14.376;2023-07-31T12:47:55;1.47;;;1.03;;
17852;SDS011;9052;53.494;14.376;2023-07-31T12:50:22;1.03;;;0.93;;
17852;SDS011;9052;53.494;14.376;2023-07-31T12:52:50;0.80;;;0.80;;
17852;SDS011;9052;53.494;14.376;2023-07-31T12:55:17;1.20;;;1.10;;
17852;SDS011;9052;53.494;14.376;2023-07-31T12:57:45;1.00;;;1.00;;
17852;SDS011;9052;53.494;14.376;2023-07-31T13:00:14;1.70;;;1.60;;
17852;SDS011;9052;53.494;14.376;2023-07-31T13:02:43;3.80;;;1.20;;
17852;SDS011;9052;53.494;14.376;2023-07-31T13:05:10;2.30;;;2.10;;
17852;SDS011;9052;53.494;14.376;2023-07-31T13:07:38;1.53;;;1.43;;
17852;SDS011;9052;53.494;14.376;2023-07-31T13:10:06;1.50;;;1.40;;
17852;SDS011;9052;53.494;14.376;2023-07-31T13:12:33;1.03;;;0.93;;
17852;SDS011;9052;53.494;14.376;2023-07-31T13:15:00;1.73;;;1.10;;
17852;SDS011;9052;53.494;14.376;2023-07-31T13:17:29;1.37;;;1.27;;
17852;SDS011;9052;53.494;14.376;2023-07-31T13:19:55;1.97;;;1.77;;
17852;SDS011;9052;53.494;14.376;2023-07-31T13:22:23;2.10;;;1.90;;
17852;SDS011;9052;53.494;14.376;2023-07-31T13:24:50;2.53;;;2.07;;
17852;SDS011;9052;53.494;14.376;2023-07-31T13:27:16;3.90;;;2.37;;
17852;SDS011;9052;53.494;14.376;2023-07-31T13:29:44;3.33;;;3.00;;
17852;SDS011;9052;53.494;14.376;2023-07-31T13:32:11;4.67;;;2.77;;
17852;SDS011;9052;53.494;14.376;2023-07-31T13:34:39;3.63;;;2.40;;
17852;SDS011;9052;53.494;14.376;2023-07-31T13:37:06;2.67;;;2.50;;
17852;SDS011;9052;53.494;14.376;2023-07-31T13:39:34;2.90;;;2.60;;
17852;SDS011;9052;53.494;14.376;2023-07-31T13:42:02;10.47;;;3.23;;
17852;SDS011;9052;53.494;14.376;2023-07-31T13:44:31;6.60;;;3.87;;
17852;SDS011;9052;53.494;14.376;2023-07-31T13:46:58;3.30;;;3.10;;
17852;SDS011;9052;53.494;14.376;2023-07-31T13:49:25;3.37;;;2.90;;
17852;SDS011;9052;53.494;14.376;2023-07-31T13:51:54;3.20;;;2.90;;
17852;SDS011;9052;53.494;14.376;2023-07-31T13:54:21;8.60;;;3.40;;
17852;SDS011;9052;53.494;14.376;2023-07-31T13:56:49;5.03;;;3.40;;
17852;SDS011;9052;53.494;14.376;2023-07-31T13:59:15;5.70;;;3.07;;
17852;SDS011;9052;53.494;14.376;2023-07-31T14:01:43;3.53;;;2.50;;
17852;SDS011;9052;53.494;14.376;2023-07-31T14:04:10;3.33;;;3.03;;
17852;SDS011;9052;53.494;14.376;2023-07-31T14:06:37;2.57;;;2.43;;
17852;SDS011;9052;53.494;14.376;2023-07-31T14:09:07;7.37;;;3.40;;
17852;SDS011;9052;53.494;14.376;2023-07-31T14:11:35;4.93;;;3.03;;
17852;SDS011;9052;53.494;14.376;2023-07-31T14:14:02;3.67;;;3.03;;
17852;SDS011;9052;53.494;14.376;2023-07-31T14:16:29;4.30;;;2.83;;
17852;SDS011;9052;53.494;14.376;2023-07-31T14:18:56;7.40;;;3.20;;
17852;SDS011;9052;53.494;14.376;2023-07-31T14:21:24;3.63;;;3.30;;
17852;SDS011;9052;53.494;14.376;2023-07-31T14:23:52;7.50;;;4.43;;
17852;SDS011;9052;53.494;14.376;2023-07-31T14:26:20;11.23;;;3.50;;
17852;SDS011;9052;53.494;14.376;2023-07-31T14:28:47;4.97;;;3.77;;
17852;SDS011;9052;53.494;14.376;2023-07-31T14:31:14;4.53;;;3.27;;
17852;SDS011;9052;53.494;14.376;2023-07-31T14:33:41;3.60;;;3.30;;
17852;SDS011;9052;53.494;14.376;2023-07-31T14:36:08;12.13;;;4.80;;
17852;SDS011;9052;53.494;14.376;2023-07-31T14:38:35;9.80;;;4.63;;
17852;SDS011;9052;53.494;14.376;2023-07-31T14:41:02;5.27;;;3.67;;
17852;SDS011;9052;53.494;14.376;2023-07-31T14:43:30;7.23;;;3.60;;
17852;SDS011;9052;53.494;14.376;2023-07-31T14:45:57;7.60;;;3.23;;
17852;SDS011;9052;53.494;14.376;2023-07-31T14:48:25;10.03;;;3.90;;
17852;SDS011;9052;53.494;14.376;2023-07-31T14:50:52;6.67;;;3.50;;
17852;SDS011;9052;53.494;14.376;2023-07-31T14:53:19;6.33;;;2.90;;
17852;SDS011;9052;53.494;14.376;2023-07-31T14:55:46;3.97;;;2.40;;
17852;SDS011;9052;53.494;14.376;2023-07-31T14:58:13;3.97;;;2.20;;